Aérodrome :
LOGIN :

S'inscrire | Disclaimer

   EN    FR    IT 

 










Légende :    VFR   VFR Marginal   IFR   IFR Intensif   IFR Très Intensif
Visi : 
Plafond : 
>= 8 km
>= 3000ft
5 à 8 km
1000 à 3000 ft
1500m à 5 km
500 à 1000 ft
800 à 1500m
200 à 500 ft
< 800m
< 200 ft
Symboles :   Orages  Brouillard  Fortes neiges  Fortes précipitations  Vent > 20 kt
SIGMETs :   Divers  Orages  Givrage  Turbulence  Onde Orograph.  Cendres Volcan.







- Altitude de l'aérodrome : 600 ft
- Code IATA : VIE


LOWW - Vienna Schwechat

DERNIER METAR :
  • 232220Z 12012KT 9999 BKN030 11/07 Q1012 NOSIG

METARs EXPIRÉS :
  • 232150Z 12010KT 9999 BKN030 11/07 Q1012 NOSIG
  • 232120Z 12011KT 9999 BKN030 11/07 Q1012 NOSIG
  • 232050Z 12013KT 9999 BKN030 11/08 Q1012 NOSIG
  • 232020Z 12013KT 9999 BKN030 11/08 Q1012 NOSIG
  • 231950Z 11014KT 9999 FEW030 BKN036 10/08 Q1012 NOSIG

TAF TAF LOWW
Valide du 23 à 21h jusqu'au 25 à 03h UTC


232015Z 2321/2503 12012KT 9999 BKN035 TX22/2415Z TN10/2321Z
TEMPO 2403/2407 14016KT BKN014
BECMG 2410/2412 16018KT CAVOK
TEMPO 2410/2417 17022G35KT
BECMG 2422/2424 16012KT
Pas de NOTAMs connus pour ce terrain.



MET'MAP, la Météo Aéronautique d'un coup d'oeil ! - Copyright ORBIFLY Décembre 2007 - Disclaimer

ORBIFLY MET'MAP TEAM :

Programmation & Développement : Alexandra Zaïnal
Conception & Développement : Baudouin d'Aumeries
Co-Programmation & Développement : Marc-Olivier Méhu
Soutien technique & logistique : Manuel Goepfert

Contact : metmap@orbifly.com




SOURCES & CREDITS :

   NOAA